sensor_id;sensor_type;location;lat;lon;timestamp;temperature;humidity
10408;DHT22;5250;53.452;10.230;2022-07-17T00:00:25;14.40;99.90
10408;DHT22;5250;53.452;10.230;2022-07-17T00:02:55;14.30;99.90
10408;DHT22;5250;53.452;10.230;2022-07-17T00:05:25;14.30;99.90
10408;DHT22;5250;53.452;10.230;2022-07-17T00:07:55;14.30;99.90
10408;DHT22;5250;53.452;10.230;2022-07-17T00:10:27;14.20;99.90
10408;DHT22;5250;53.452;10.230;2022-07-17T00:12:58;14.20;99.90
10408;DHT22;5250;53.452;10.230;2022-07-17T00:15:28;14.20;99.90
10408;DHT22;5250;53.452;10.230;2022-07-17T00:17:58;14.20;99.90
10408;DHT22;5250;53.452;10.230;2022-07-17T00:20:29;14.20;99.90
10408;DHT22;5250;53.452;10.230;2022-07-17T00:22:59;14.20;99.90
10408;DHT22;5250;53.452;10.230;2022-07-17T00:25:32;14.20;99.90
10408;DHT22;5250;53.452;10.230;2022-07-17T00:28:02;14.20;99.90
10408;DHT22;5250;53.452;10.230;2022-07-17T00:30:33;14.20;99.90
10408;DHT22;5250;53.452;10.230;2022-07-17T00:33:03;14.20;99.90
10408;DHT22;5250;53.452;10.230;2022-07-17T00:35:33;14.10;99.90
10408;DHT22;5250;53.452;10.230;2022-07-17T00:38:03;14.10;99.90
10408;DHT22;5250;53.452;10.230;2022-07-17T00:40:35;14.10;99.90
10408;DHT22;5250;53.452;10.230;2022-07-17T00:43:05;14.10;99.90
10408;DHT22;5250;53.452;10.230;2022-07-17T00:45:35;14.00;99.90
10408;DHT22;5250;53.452;10.230;2022-07-17T00:48:08;13.90;99.90
10408;DHT22;5250;53.452;10.230;2022-07-17T00:50:41;13.90;99.90
10408;DHT22;5250;53.452;10.230;2022-07-17T00:53:11;13.90;99.90
10408;DHT22;5250;53.452;10.230;2022-07-17T00:55:45;13.80;99.90
10408;DHT22;5250;53.452;10.230;2022-07-17T00:58:19;13.80;99.90
10408;DHT22;5250;53.452;10.230;2022-07-17T01:00:52;13.80;99.90
10408;DHT22;5250;53.452;10.230;2022-07-17T01:03:24;13.80;99.90
10408;DHT22;5250;53.452;10.230;2022-07-17T01:05:54;13.80;99.90
10408;DHT22;5250;53.452;10.230;2022-07-17T01:08:24;13.80;99.90
10408;DHT22;5250;53.452;10.230;2022-07-17T01:10:57;13.80;99.90
10408;DHT22;5250;53.452;10.230;2022-07-17T01:13:27;13.80;99.90
10408;DHT22;5250;53.452;10.230;2022-07-17T01:15:57;13.80;99.90
10408;DHT22;5250;53.452;10.230;2022-07-17T01:18:27;13.70;99.90
10408;DHT22;5250;53.452;10.230;2022-07-17T01:21:06;13.70;99.90
10408;DHT22;5250;53.452;10.230;2022-07-17T01:23:36;13.70;99.90
10408;DHT22;5250;53.452;10.230;2022-07-17T01:26:05;13.70;99.90
10408;DHT22;5250;53.452;10.230;2022-07-17T01:28:35;13.70;99.90
10408;DHT22;5250;53.452;10.230;2022-07-17T01:31:05;13.60;99.90
10408;DHT22;5250;53.452;10.230;2022-07-17T01:33:36;13.60;99.90
10408;DHT22;5250;53.452;10.230;2022-07-17T01:36:09;13.60;99.90
10408;DHT22;5250;53.452;10.230;2022-07-17T01:38:39;13.60;99.90
10408;DHT22;5250;53.452;10.230;2022-07-17T01:41:08;13.60;99.90
10408;DHT22;5250;53.452;10.230;2022-07-17T01:43:38;13.50;99.90
10408;DHT22;5250;53.452;10.230;2022-07-17T01:46:08;13.40;99.90
10408;DHT22;5250;53.452;10.230;2022-07-17T01:48:38;13.30;99.90
10408;DHT22;5250;53.452;10.230;2022-07-17T01:51:11;13.30;99.90
10408;DHT22;5250;53.452;10.230;2022-07-17T01:53:41;13.30;99.90
10408;DHT22;5250;53.452;10.230;2022-07-17T01:56:11;13.20;99.90
10408;DHT22;5250;53.452;10.230;2022-07-17T01:58:41;13.20;99.90
10408;DHT22;5250;53.452;10.230;2022-07-17T02:01:11;13.20;99.90
10408;DHT22;5250;53.452;10.230;2022-07-17T02:03:42;13.20;99.90
10408;DHT22;5250;53.452;10.230;2022-07-17T02:06:14;13.20;99.90
10408;DHT22;5250;53.452;10.230;2022-07-17T02:08:44;13.20;99.90
10408;DHT22;5250;53.452;10.230;2022-07-17T02:11:17;13.20;99.90
10408;DHT22;5250;53.452;10.230;2022-07-17T02:13:47;13.20;99.90
10408;DHT22;5250;53.452;10.230;2022-07-17T02:16:17;13.20;99.90
10408;DHT22;5250;53.452;10.230;2022-07-17T02:18:47;13.20;99.90
10408;DHT22;5250;53.452;10.230;2022-07-17T02:21:19;13.10;99.90
10408;DHT22;5250;53.452;10.230;2022-07-17T02:23:49;13.10;99.90
10408;DHT22;5250;53.452;10.230;2022-07-17T02:26:19;13.10;99.90
10408;DHT22;5250;53.452;10.230;2022-07-17T02:28:49;13.10;99.90
10408;DHT22;5250;53.452;10.230;2022-07-17T02:31:19;13.10;99.90
10408;DHT22;5250;53.452;10.230;2022-07-17T02:33:49;13.20;99.90
10408;DHT22;5250;53.452;10.230;2022-07-17T02:36:22;13.20;99.90
10408;DHT22;5250;53.452;10.230;2022-07-17T02:38:52;13.20;99.90
10408;DHT22;5250;53.452;10.230;2022-07-17T02:41:23;13.20;99.90
10408;DHT22;5250;53.452;10.230;2022-07-17T02:43:54;13.20;99.90
10408;DHT22;5250;53.452;10.230;2022-07-17T02:46:23;13.20;99.90
10408;DHT22;5250;53.452;10.230;2022-07-17T02:48:53;13.20;99.90
10408;DHT22;5250;53.452;10.230;2022-07-17T02:51:26;13.20;99.90
10408;DHT22;5250;53.452;10.230;2022-07-17T02:53:56;13.20;99.90
10408;DHT22;5250;53.452;10.230;2022-07-17T02:56:26;13.30;99.90
10408;DHT22;5250;53.452;10.230;2022-07-17T02:58:56;13.30;99.90
10408;DHT22;5250;53.452;10.230;2022-07-17T03:01:26;13.30;99.90
10408;DHT22;5250;53.452;10.230;2022-07-17T03:03:57;13.30;99.90
10408;DHT22;5250;53.452;10.230;2022-07-17T03:06:29;13.30;99.90
10408;DHT22;5250;53.452;10.230;2022-07-17T03:08:59;13.30;99.90
10408;DHT22;5250;53.452;10.230;2022-07-17T03:11:29;13.40;99.90
10408;DHT22;5250;53.452;10.230;2022-07-17T03:13:59;13.40;99.90
10408;DHT22;5250;53.452;10.230;2022-07-17T03:16:29;13.50;99.90
10408;DHT22;5250;53.452;10.230;2022-07-17T03:18:59;13.50;99.90
10408;DHT22;5250;53.452;10.230;2022-07-17T03:21:32;13.60;99.90
10408;DHT22;5250;53.452;10.230;2022-07-17T03:24:02;13.60;99.90
10408;DHT22;5250;53.452;10.230;2022-07-17T03:26:32;13.60;99.90
10408;DHT22;5250;53.452;10.230;2022-07-17T03:29:02;13.50;99.90
10408;DHT22;5250;53.452;10.230;2022-07-17T03:31:32;13.60;99.90
10408;DHT22;5250;53.452;10.230;2022-07-17T03:34:02;13.60;99.90
10408;DHT22;5250;53.452;10.230;2022-07-17T03:36:34;13.70;99.90
10408;DHT22;5250;53.452;10.230;2022-07-17T03:39:05;13.70;99.90
10408;DHT22;5250;53.452;10.230;2022-07-17T03:41:38;13.80;99.90
10408;DHT22;5250;53.452;10.230;2022-07-17T03:44:10;13.90;99.90
10408;DHT22;5250;53.452;10.230;2022-07-17T03:46:42;13.90;99.90
10408;DHT22;5250;53.452;10.230;2022-07-17T03:49:18;13.90;99.90
10408;DHT22;5250;53.452;10.230;2022-07-17T03:51:56;14.00;99.90
10408;DHT22;5250;53.452;10.230;2022-07-17T03:54:27;14.10;99.90
10408;DHT22;5250;53.452;10.230;2022-07-17T03:57:03;14.10;99.90
10408;DHT22;5250;53.452;10.230;2022-07-17T03:59:34;14.10;99.90
10408;DHT22;5250;53.452;10.230;2022-07-17T04:02:09;14.20;99.90
10408;DHT22;5250;53.452;10.230;2022-07-17T04:04:43;14.20;99.90
10408;DHT22;5250;53.452;10.230;2022-07-17T04:07:16;14.30;99.90
10408;DHT22;5250;53.452;10.230;2022-07-17T04:09:59;14.30;99.90
10408;DHT22;5250;53.452;10.230;2022-07-17T04:12:30;14.30;99.90
10408;DHT22;5250;53.452;10.230;2022-07-17T04:15:04;14.30;99.90
10408;DHT22;5250;53.452;10.230;2022-07-17T04:18:04;14.30;99.90
10408;DHT22;5250;53.452;10.230;2022-07-17T04:20:34;14.30;99.90
10408;DHT22;5250;53.452;10.230;2022-07-17T04:23:09;14.30;99.90
10408;DHT22;5250;53.452;10.230;2022-07-17T04:25:40;14.40;99.90
10408;DHT22;5250;53.452;10.230;2022-07-17T04:28:11;14.40;99.90
10408;DHT22;5250;53.452;10.230;2022-07-17T04:30:43;14.50;99.90
10408;DHT22;5250;53.452;10.230;2022-07-17T04:33:17;14.50;99.90
10408;DHT22;5250;53.452;10.230;2022-07-17T04:35:48;14.50;99.90
10408;DHT22;5250;53.452;10.230;2022-07-17T04:38:22;14.50;99.90
10408;DHT22;5250;53.452;10.230;2022-07-17T04:40:55;14.60;99.90
10408;DHT22;5250;53.452;10.230;2022-07-17T04:43:28;14.50;99.90
10408;DHT22;5250;53.452;10.230;2022-07-17T04:45:59;14.60;99.90
10408;DHT22;5250;53.452;10.230;2022-07-17T04:48:30;14.60;99.90
10408;DHT22;5250;53.452;10.230;2022-07-17T04:51:00;14.60;99.90
10408;DHT22;5250;53.452;10.230;2022-07-17T04:53:33;14.70;99.90
10408;DHT22;5250;53.452;10.230;2022-07-17T04:56:05;14.70;99.90
10408;DHT22;5250;53.452;10.230;2022-07-17T04:58:38;14.70;99.90
10408;DHT22;5250;53.452;10.230;2022-07-17T05:01:32;14.70;99.90
10408;DHT22;5250;53.452;10.230;2022-07-17T05:04:04;14.80;99.90
10408;DHT22;5250;53.452;10.230;2022-07-17T05:06:35;14.90;99.90
10408;DHT22;5250;53.452;10.230;2022-07-17T05:09:08;14.90;99.90
10408;DHT22;5250;53.452;10.230;2022-07-17T05:11:38;15.00;99.90
10408;DHT22;5250;53.452;10.230;2022-07-17T05:14:08;15.10;99.90
10408;DHT22;5250;53.452;10.230;2022-07-17T05:16:38;15.20;99.90
10408;DHT22;5250;53.452;10.230;2022-07-17T05:19:08;15.20;99.90
10408;DHT22;5250;53.452;10.230;2022-07-17T05:21:38;15.20;99.90
10408;DHT22;5250;53.452;10.230;2022-07-17T05:24:11;15.20;99.90
10408;DHT22;5250;53.452;10.230;2022-07-17T05:26:41;15.30;99.90
10408;DHT22;5250;53.452;10.230;2022-07-17T05:29:11;15.30;99.90
10408;DHT22;5250;53.452;10.230;2022-07-17T05:31:41;15.40;99.90
10408;DHT22;5250;53.452;10.230;2022-07-17T05:34:12;15.40;99.90
10408;DHT22;5250;53.452;10.230;2022-07-17T05:36:42;15.50;99.90
10408;DHT22;5250;53.452;10.230;2022-07-17T05:39:15;15.50;99.90
10408;DHT22;5250;53.452;10.230;2022-07-17T05:41:45;15.50;99.90
10408;DHT22;5250;53.452;10.230;2022-07-17T05:44:15;15.50;99.90
10408;DHT22;5250;53.452;10.230;2022-07-17T05:46:45;15.50;99.90
10408;DHT22;5250;53.452;10.230;2022-07-17T05:49:15;15.50;99.90
10408;DHT22;5250;53.452;10.230;2022-07-17T05:51:45;15.60;99.90
10408;DHT22;5250;53.452;10.230;2022-07-17T05:54:18;15.60;99.90
10408;DHT22;5250;53.452;10.230;2022-07-17T05:56:48;15.50;99.90
10408;DHT22;5250;53.452;10.230;2022-07-17T05:59:19;15.60;99.90
10408;DHT22;5250;53.452;10.230;2022-07-17T06:01:49;15.60;99.90
10408;DHT22;5250;53.452;10.230;2022-07-17T06:04:19;15.80;99.90
10408;DHT22;5250;53.452;10.230;2022-07-17T06:06:49;15.90;99.90
10408;DHT22;5250;53.452;10.230;2022-07-17T06:09:21;15.90;99.90
10408;DHT22;5250;53.452;10.230;2022-07-17T06:11:51;16.00;99.90
10408;DHT22;5250;53.452;10.230;2022-07-17T06:14:21;16.10;99.90
10408;DHT22;5250;53.452;10.230;2022-07-17T06:16:51;16.10;99.90
10408;DHT22;5250;53.452;10.230;2022-07-17T06:19:21;16.00;99.90
10408;DHT22;5250;53.452;10.230;2022-07-17T06:21:51;16.10;99.90
10408;DHT22;5250;53.452;10.230;2022-07-17T06:24:24;16.20;99.90
10408;DHT22;5250;53.452;10.230;2022-07-17T06:26:54;16.40;99.90
10408;DHT22;5250;53.452;10.230;2022-07-17T06:29:24;16.40;99.90
10408;DHT22;5250;53.452;10.230;2022-07-17T06:31:53;16.40;99.90
10408;DHT22;5250;53.452;10.230;2022-07-17T06:34:23;16.40;99.90
10408;DHT22;5250;53.452;10.230;2022-07-17T06:36:53;16.40;99.90
10408;DHT22;5250;53.452;10.230;2022-07-17T06:39:26;16.40;99.90
10408;DHT22;5250;53.452;10.230;2022-07-17T06:41:56;16.50;99.90
10408;DHT22;5250;53.452;10.230;2022-07-17T06:44:26;16.50;99.90
10408;DHT22;5250;53.452;10.230;2022-07-17T06:46:56;16.60;99.90
10408;DHT22;5250;53.452;10.230;2022-07-17T06:49:26;16.60;99.90
10408;DHT22;5250;53.452;10.230;2022-07-17T06:51:56;16.70;99.90
10408;DHT22;5250;53.452;10.230;2022-07-17T06:54:29;16.80;99.90
10408;DHT22;5250;53.452;10.230;2022-07-17T06:56:59;16.90;99.90
10408;DHT22;5250;53.452;10.230;2022-07-17T06:59:29;16.90;99.90
10408;DHT22;5250;53.452;10.230;2022-07-17T07:01:58;17.00;99.90
10408;DHT22;5250;53.452;10.230;2022-07-17T07:04:29;17.10;99.90
10408;DHT22;5250;53.452;10.230;2022-07-17T07:06:59;17.10;99.90
10408;DHT22;5250;53.452;10.230;2022-07-17T07:09:31;17.10;99.90
10408;DHT22;5250;53.452;10.230;2022-07-17T07:12:03;17.20;99.90
10408;DHT22;5250;53.452;10.230;2022-07-17T07:14:34;17.20;99.90
10408;DHT22;5250;53.452;10.230;2022-07-17T07:17:04;17.30;99.90
10408;DHT22;5250;53.452;10.230;2022-07-17T07:19:34;17.20;99.90
10408;DHT22;5250;53.452;10.230;2022-07-17T07:22:04;17.30;99.90
10408;DHT22;5250;53.452;10.230;2022-07-17T07:24:36;17.30;99.90
10408;DHT22;5250;53.452;10.230;2022-07-17T07:27:07;17.40;99.90
10408;DHT22;5250;53.452;10.230;2022-07-17T07:29:37;17.40;99.90
10408;DHT22;5250;53.452;10.230;2022-07-17T07:32:07;17.50;99.90
10408;DHT22;5250;53.452;10.230;2022-07-17T07:34:37;17.70;99.90
10408;DHT22;5250;53.452;10.230;2022-07-17T07:37:08;17.90;99.90
10408;DHT22;5250;53.452;10.230;2022-07-17T07:39:41;18.00;99.90
10408;DHT22;5250;53.452;10.230;2022-07-17T07:42:11;18.20;99.90
10408;DHT22;5250;53.452;10.230;2022-07-17T07:44:41;18.30;99.90
10408;DHT22;5250;53.452;10.230;2022-07-17T07:47:10;18.40;99.90
10408;DHT22;5250;53.452;10.230;2022-07-17T07:49:41;18.40;99.90
10408;DHT22;5250;53.452;10.230;2022-07-17T07:52:11;18.40;99.90
10408;DHT22;5250;53.452;10.230;2022-07-17T07:54:43;18.50;99.90
10408;DHT22;5250;53.452;10.230;2022-07-17T07:57:13;18.50;99.90
10408;DHT22;5250;53.452;10.230;2022-07-17T07:59:43;18.60;99.90
10408;DHT22;5250;53.452;10.230;2022-07-17T08:02:13;18.70;99.90
10408;DHT22;5250;53.452;10.230;2022-07-17T08:04:43;18.70;99.90
10408;DHT22;5250;53.452;10.230;2022-07-17T08:07:13;18.80;99.90
10408;DHT22;5250;53.452;10.230;2022-07-17T08:09:46;18.90;99.90
10408;DHT22;5250;53.452;10.230;2022-07-17T08:12:16;19.10;99.90
10408;DHT22;5250;53.452;10.230;2022-07-17T08:15:07;19.10;99.90
10408;DHT22;5250;53.452;10.230;2022-07-17T08:17:37;19.20;99.90
10408;DHT22;5250;53.452;10.230;2022-07-17T08:20:08;19.40;99.90
10408;DHT22;5250;53.452;10.230;2022-07-17T08:22:40;19.40;99.90
10408;DHT22;5250;53.452;10.230;2022-07-17T08:25:34;19.50;99.90
10408;DHT22;5250;53.452;10.230;2022-07-17T08:28:04;19.60;99.90
10408;DHT22;5250;53.452;10.230;2022-07-17T08:30:35;19.50;99.90
10408;DHT22;5250;53.452;10.230;2022-07-17T08:33:07;19.50;99.90
10408;DHT22;5250;53.452;10.230;2022-07-17T08:35:37;19.50;99.90
10408;DHT22;5250;53.452;10.230;2022-07-17T08:38:07;19.50;99.90
10408;DHT22;5250;53.452;10.230;2022-07-17T08:40:40;19.50;99.90
10408;DHT22;5250;53.452;10.230;2022-07-17T08:43:10;19.60;99.90
10408;DHT22;5250;53.452;10.230;2022-07-17T08:45:41;19.70;99.90
10408;DHT22;5250;53.452;10.230;2022-07-17T08:48:15;19.80;99.90
10408;DHT22;5250;53.452;10.230;2022-07-17T08:50:47;19.80;99.90
10408;DHT22;5250;53.452;10.230;2022-07-17T08:53:17;19.80;99.90
10408;DHT22;5250;53.452;10.230;2022-07-17T08:55:49;19.70;99.90
10408;DHT22;5250;53.452;10.230;2022-07-17T08:58:20;19.80;99.90
10408;DHT22;5250;53.452;10.230;2022-07-17T09:00:50;19.90;99.90
10408;DHT22;5250;53.452;10.230;2022-07-17T09:03:20;20.10;99.90
10408;DHT22;5250;53.452;10.230;2022-07-17T09:05:51;20.10;99.90
10408;DHT22;5250;53.452;10.230;2022-07-17T09:08:23;20.10;99.90
10408;DHT22;5250;53.452;10.230;2022-07-17T09:10:59;20.10;99.90
10408;DHT22;5250;53.452;10.230;2022-07-17T09:13:30;20.00;99.90
10408;DHT22;5250;53.452;10.230;2022-07-17T09:16:07;19.80;99.90
10408;DHT22;5250;53.452;10.230;2022-07-17T09:18:43;19.60;99.90
10408;DHT22;5250;53.452;10.230;2022-07-17T09:21:17;19.70;99.90
10408;DHT22;5250;53.452;10.230;2022-07-17T09:23:57;20.00;99.90
10408;DHT22;5250;53.452;10.230;2022-07-17T09:26:32;20.20;99.90
10408;DHT22;5250;53.452;10.230;2022-07-17T09:29:04;20.20;99.90
10408;DHT22;5250;53.452;10.230;2022-07-17T09:31:34;20.10;99.90
10408;DHT22;5250;53.452;10.230;2022-07-17T09:34:05;20.20;99.90
10408;DHT22;5250;53.452;10.230;2022-07-17T09:36:35;20.20;99.90
10408;DHT22;5250;53.452;10.230;2022-07-17T09:41:49;20.00;99.90
10408;DHT22;5250;53.452;10.230;2022-07-17T09:44:19;20.00;99.90
10408;DHT22;5250;53.452;10.230;2022-07-17T09:46:50;20.00;99.90
10408;DHT22;5250;53.452;10.230;2022-07-17T09:49:25;20.00;99.90
10408;DHT22;5250;53.452;10.230;2022-07-17T09:51:58;19.90;99.90
10408;DHT22;5250;53.452;10.230;2022-07-17T09:54:32;20.00;99.90
10408;DHT22;5250;53.452;10.230;2022-07-17T09:57:08;20.10;99.90
10408;DHT22;5250;53.452;10.230;2022-07-17T09:59:39;20.30;99.90
10408;DHT22;5250;53.452;10.230;2022-07-17T10:02:09;20.50;99.90
10408;DHT22;5250;53.452;10.230;2022-07-17T10:04:40;20.60;99.90
10408;DHT22;5250;53.452;10.230;2022-07-17T10:07:11;20.70;99.90
10408;DHT22;5250;53.452;10.230;2022-07-17T10:09:41;21.10;99.90
10408;DHT22;5250;53.452;10.230;2022-07-17T10:12:14;21.30;99.90
10408;DHT22;5250;53.452;10.230;2022-07-17T10:14:47;21.20;99.90
10408;DHT22;5250;53.452;10.230;2022-07-17T10:17:20;21.20;99.90
10408;DHT22;5250;53.452;10.230;2022-07-17T10:19:54;21.20;99.90
10408;DHT22;5250;53.452;10.230;2022-07-17T10:22:25;21.20;99.90
10408;DHT22;5250;53.452;10.230;2022-07-17T10:24:56;21.30;99.90
10408;DHT22;5250;53.452;10.230;2022-07-17T10:27:30;21.40;99.90
10408;DHT22;5250;53.452;10.230;2022-07-17T10:30:03;21.50;99.90
10408;DHT22;5250;53.452;10.230;2022-07-17T10:32:34;21.60;99.90
10408;DHT22;5250;53.452;10.230;2022-07-17T10:35:08;21.80;99.90
10408;DHT22;5250;53.452;10.230;2022-07-17T10:37:40;21.90;99.90
10408;DHT22;5250;53.452;10.230;2022-07-17T10:40:15;22.00;99.90
10408;DHT22;5250;53.452;10.230;2022-07-17T10:42:55;22.10;99.90
10408;DHT22;5250;53.452;10.230;2022-07-17T10:45:29;22.20;99.90
10408;DHT22;5250;53.452;10.230;2022-07-17T10:48:03;22.30;99.90
10408;DHT22;5250;53.452;10.230;2022-07-17T10:50:38;22.30;99.90
10408;DHT22;5250;53.452;10.230;2022-07-17T10:53:15;22.30;99.90
10408;DHT22;5250;53.452;10.230;2022-07-17T10:55:54;22.30;99.90
10408;DHT22;5250;53.452;10.230;2022-07-17T10:58:28;22.40;99.90
10408;DHT22;5250;53.452;10.230;2022-07-17T11:01:04;22.50;99.90
10408;DHT22;5250;53.452;10.230;2022-07-17T11:03:39;22.80;99.90
10408;DHT22;5250;53.452;10.230;2022-07-17T11:06:12;22.80;99.90
10408;DHT22;5250;53.452;10.230;2022-07-17T11:08:44;22.90;99.90
10408;DHT22;5250;53.452;10.230;2022-07-17T11:11:17;23.00;99.90
10408;DHT22;5250;53.452;10.230;2022-07-17T11:14:10;23.00;99.90
10408;DHT22;5250;53.452;10.230;2022-07-17T11:16:45;23.00;99.90
10408;DHT22;5250;53.452;10.230;2022-07-17T11:19:25;23.10;99.90
10408;DHT22;5250;53.452;10.230;2022-07-17T11:21:57;23.20;99.90
10408;DHT22;5250;53.452;10.230;2022-07-17T11:24:35;23.20;99.90
10408;DHT22;5250;53.452;10.230;2022-07-17T11:27:06;23.20;99.90
10408;DHT22;5250;53.452;10.230;2022-07-17T11:29:41;23.20;99.90
10408;DHT22;5250;53.452;10.230;2022-07-17T11:32:11;23.40;99.90
10408;DHT22;5250;53.452;10.230;2022-07-17T11:34:41;23.50;99.90
10408;DHT22;5250;53.452;10.230;2022-07-17T11:37:11;23.50;99.90
10408;DHT22;5250;53.452;10.230;2022-07-17T11:39:43;23.60;99.90
10408;DHT22;5250;53.452;10.230;2022-07-17T11:42:15;23.90;99.90
10408;DHT22;5250;53.452;10.230;2022-07-17T11:44:51;24.00;99.90
10408;DHT22;5250;53.452;10.230;2022-07-17T11:47:23;24.00;99.90
10408;DHT22;5250;53.452;10.230;2022-07-17T11:50:04;24.00;99.90
10408;DHT22;5250;53.452;10.230;2022-07-17T11:52:42;24.00;99.90
10408;DHT22;5250;53.452;10.230;2022-07-17T11:55:13;23.90;99.90
10408;DHT22;5250;53.452;10.230;2022-07-17T11:57:44;23.90;99.90
10408;DHT22;5250;53.452;10.230;2022-07-17T12:00:19;24.00;99.90
10408;DHT22;5250;53.452;10.230;2022-07-17T12:02:58;24.10;99.90
10408;DHT22;5250;53.452;10.230;2022-07-17T12:05:30;24.30;99.90
10408;DHT22;5250;53.452;10.230;2022-07-17T12:08:01;24.40;99.90
10408;DHT22;5250;53.452;10.230;2022-07-17T12:10:31;24.20;99.90
10408;DHT22;5250;53.452;10.230;2022-07-17T12:13:04;24.20;99.90
10408;DHT22;5250;53.452;10.230;2022-07-17T12:15:39;24.40;99.90
10408;DHT22;5250;53.452;10.230;2022-07-17T12:18:20;24.50;99.90
10408;DHT22;5250;53.452;10.230;2022-07-17T12:20:52;24.60;99.90
10408;DHT22;5250;53.452;10.230;2022-07-17T12:23:26;24.70;99.90
10408;DHT22;5250;53.452;10.230;2022-07-17T12:26:04;24.70;99.90
10408;DHT22;5250;53.452;10.230;2022-07-17T12:28:34;24.60;99.90
10408;DHT22;5250;53.452;10.230;2022-07-17T12:31:08;24.80;99.90
10408;DHT22;5250;53.452;10.230;2022-07-17T12:33:39;25.10;99.90
10408;DHT22;5250;53.452;10.230;2022-07-17T12:36:09;25.30;99.90
10408;DHT22;5250;53.452;10.230;2022-07-17T12:38:39;25.50;99.90
10408;DHT22;5250;53.452;10.230;2022-07-17T12:41:09;25.50;99.90
10408;DHT22;5250;53.452;10.230;2022-07-17T12:43:39;25.60;99.90
10408;DHT22;5250;53.452;10.230;2022-07-17T12:46:12;25.60;99.90
10408;DHT22;5250;53.452;10.230;2022-07-17T12:48:44;25.60;99.90
10408;DHT22;5250;53.452;10.230;2022-07-17T12:51:15;25.60;99.90
10408;DHT22;5250;53.452;10.230;2022-07-17T12:53:45;25.70;99.90
10408;DHT22;5250;53.452;10.230;2022-07-17T12:56:16;25.60;99.90
10408;DHT22;5250;53.452;10.230;2022-07-17T12:58:46;25.50;99.90
10408;DHT22;5250;53.452;10.230;2022-07-17T13:01:19;25.50;99.90
10408;DHT22;5250;53.452;10.230;2022-07-17T13:03:49;25.70;99.90
10408;DHT22;5250;53.452;10.230;2022-07-17T13:06:19;25.50;99.90
10408;DHT22;5250;53.452;10.230;2022-07-17T13:08:49;25.50;99.90
10408;DHT22;5250;53.452;10.230;2022-07-17T13:11:19;25.60;99.90
10408;DHT22;5250;53.452;10.230;2022-07-17T13:13:50;25.90;99.90
10408;DHT22;5250;53.452;10.230;2022-07-17T13:16:23;26.10;99.90
10408;DHT22;5250;53.452;10.230;2022-07-17T13:18:54;26.20;99.90
10408;DHT22;5250;53.452;10.230;2022-07-17T13:21:25;26.30;99.90
10408;DHT22;5250;53.452;10.230;2022-07-17T13:23:55;26.40;99.90
10408;DHT22;5250;53.452;10.230;2022-07-17T13:26:25;26.40;99.90
10408;DHT22;5250;53.452;10.230;2022-07-17T13:28:55;26.40;99.90
10408;DHT22;5250;53.452;10.230;2022-07-17T13:31:28;26.20;99.90
10408;DHT22;5250;53.452;10.230;2022-07-17T13:33:59;26.10;99.90
10408;DHT22;5250;53.452;10.230;2022-07-17T13:36:29;26.20;99.90
10408;DHT22;5250;53.452;10.230;2022-07-17T13:39:00;26.30;99.90
10408;DHT22;5250;53.452;10.230;2022-07-17T13:41:30;26.40;99.90
10408;DHT22;5250;53.452;10.230;2022-07-17T13:44:00;26.50;99.90
10408;DHT22;5250;53.452;10.230;2022-07-17T13:46:37;26.60;99.90
10408;DHT22;5250;53.452;10.230;2022-07-17T13:49:07;26.60;99.90
10408;DHT22;5250;53.452;10.230;2022-07-17T13:51:38;26.50;99.90
10408;DHT22;5250;53.452;10.230;2022-07-17T13:54:08;26.40;99.90
10408;DHT22;5250;53.452;10.230;2022-07-17T13:56:39;26.40;99.90
10408;DHT22;5250;53.452;10.230;2022-07-17T13:59:09;26.50;99.90
10408;DHT22;5250;53.452;10.230;2022-07-17T14:01:42;26.70;99.90
10408;DHT22;5250;53.452;10.230;2022-07-17T14:04:12;26.70;99.90
10408;DHT22;5250;53.452;10.230;2022-07-17T14:06:42;26.60;99.90
10408;DHT22;5250;53.452;10.230;2022-07-17T14:09:13;26.50;99.90
10408;DHT22;5250;53.452;10.230;2022-07-17T14:11:43;26.80;99.90
10408;DHT22;5250;53.452;10.230;2022-07-17T14:14:13;27.10;99.90
10408;DHT22;5250;53.452;10.230;2022-07-17T14:16:47;27.30;99.90
10408;DHT22;5250;53.452;10.230;2022-07-17T14:19:17;27.50;99.20
10408;DHT22;5250;53.452;10.230;2022-07-17T14:21:47;27.40;98.70
10408;DHT22;5250;53.452;10.230;2022-07-17T14:24:18;27.30;99.20
10408;DHT22;5250;53.452;10.230;2022-07-17T14:26:48;27.30;99.90
10408;DHT22;5250;53.452;10.230;2022-07-17T14:29:18;27.30;99.80
10408;DHT22;5250;53.452;10.230;2022-07-17T14:31:51;27.30;99.90
10408;DHT22;5250;53.452;10.230;2022-07-17T14:34:21;27.40;99.80
10408;DHT22;5250;53.452;10.230;2022-07-17T14:36:51;27.50;99.90
10408;DHT22;5250;53.452;10.230;2022-07-17T14:39:22;27.90;99.90
10408;DHT22;5250;53.452;10.230;2022-07-17T14:41:53;28.40;99.80
10408;DHT22;5250;53.452;10.230;2022-07-17T14:44:24;28.70;98.80
10408;DHT22;5250;53.452;10.230;2022-07-17T14:46:57;28.70;99.80
10408;DHT22;5250;53.452;10.230;2022-07-17T14:49:27;29.00;98.50
10408;DHT22;5250;53.452;10.230;2022-07-17T14:51:57;29.30;98.50
10408;DHT22;5250;53.452;10.230;2022-07-17T14:54:27;29.40;98.40
10408;DHT22;5250;53.452;10.230;2022-07-17T14:56:58;29.60;98.90
10408;DHT22;5250;53.452;10.230;2022-07-17T14:59:28;29.80;98.50
10408;DHT22;5250;53.452;10.230;2022-07-17T15:02:00;29.70;97.80
10408;DHT22;5250;53.452;10.230;2022-07-17T15:04:30;29.70;97.90
10408;DHT22;5250;53.452;10.230;2022-07-17T15:07:03;29.60;98.20
10408;DHT22;5250;53.452;10.230;2022-07-17T15:09:34;29.60;97.10
10408;DHT22;5250;53.452;10.230;2022-07-17T15:12:05;29.40;97.10
10408;DHT22;5250;53.452;10.230;2022-07-17T15:14:35;29.20;98.00
10408;DHT22;5250;53.452;10.230;2022-07-17T15:17:08;29.30;97.70
10408;DHT22;5250;53.452;10.230;2022-07-17T15:19:38;29.20;97.50
10408;DHT22;5250;53.452;10.230;2022-07-17T15:22:08;29.00;97.60
10408;DHT22;5250;53.452;10.230;2022-07-17T15:24:38;29.00;98.00
10408;DHT22;5250;53.452;10.230;2022-07-17T15:27:08;28.80;97.90
10408;DHT22;5250;53.452;10.230;2022-07-17T15:29:39;28.70;98.30
10408;DHT22;5250;53.452;10.230;2022-07-17T15:32:11;28.70;98.30
10408;DHT22;5250;53.452;10.230;2022-07-17T15:34:42;28.50;98.00
10408;DHT22;5250;53.452;10.230;2022-07-17T15:37:12;28.20;98.80
10408;DHT22;5250;53.452;10.230;2022-07-17T15:41:08;28.30;98.70
10408;DHT22;5250;53.452;10.230;2022-07-17T15:43:38;28.50;99.40
10408;DHT22;5250;53.452;10.230;2022-07-17T15:46:08;28.50;97.70
10408;DHT22;5250;53.452;10.230;2022-07-17T15:48:40;28.30;97.80
10408;DHT22;5250;53.452;10.230;2022-07-17T15:51:10;28.00;97.90
10408;DHT22;5250;53.452;10.230;2022-07-17T15:53:41;27.90;99.00
10408;DHT22;5250;53.452;10.230;2022-07-17T15:56:11;28.10;99.10
10408;DHT22;5250;53.452;10.230;2022-07-17T15:58:41;28.40;98.70
10408;DHT22;5250;53.452;10.230;2022-07-17T16:01:11;28.60;98.30